Aviation Digital Data Service (ADDS)

Output produced by METARs form (1159 UTC 25 June 2019)
found at http://www.aviationweather.gov/metar/data/
 
Forecast for: PHKO (KAILUA/KONA , HI, US)
Text: PHKO 251121Z 2512/2612 13008KT P6SM SCT025 BKN050
Forecast period: 1200 to 2000 UTC 25 June 2019
Forecast type: FROM: standard forecast or significant change
Winds: from the SE (130 degrees) at 9 MPH (8 knots; 4.1 m/s)
Visibility: 6 or more miles 10+ km)
Ceiling: 5000 feet AGL
Clouds: scattered clouds at 2500 feet AGL
broken clouds at 5000 feet AGL
Weather: no significant weather forecast for this period
Text: FM252000 26011KT P6SM VCSH SCT025 BKN050
Forecast period: 2000 UTC 25 June 2019 to 0500 UTC 26 June 2019
Forecast type: FROM: standard forecast or significant change
Winds: from the W (260 degrees) at 13 MPH (11 knots; 5.7 m/s)
Visibility: 6 or more miles 10+ km)
Ceiling: 5000 feet AGL
Clouds: scattered clouds at 2500 feet AGL
broken clouds at 5000 feet AGL
Weather: VCSH  (showers in vicinity)
Text: FM260500 VRB06KT P6SM VCSH SCT025 BKN050
Forecast period: 0500 to 1200 UTC 26 June 2019
Forecast type: FROM: standard forecast or significant change
Winds: variable direction winds at 7 MPH (6 knots; 3.1 m/s)
Visibility: 6 or more miles 10+ km)
Ceiling: 5000 feet AGL
Clouds: scattered clouds at 2500 feet AGL
broken clouds at 5000 feet AGL
Weather: VCSH  (showers in vicinity)